Nearby METAR Reports

 

KPMD - Palmdale, California, USA
Distance from station: NNE 12mi, 19km
Updated: Wed, 12-May-2021 7:53pm PDT
Clear
Clear
 Wind from WSW
Wind: WSW 12 mph , 19 km/h
Temperature: 79°F , 26°C
Dew Point: 34°F , 1°C
Humidity: 20%
Barometer: 29.99 inHg , 1015.6 hPa
Clouds: Clear
Visibility: 10 miles , 16 km
2021/05/13 02:53 KPMD 130253Z 24010KT 10SM CLR 26/01 A2999 RMK AO2 SLP130 T02610011 53008 $
KWJF - Lancaster/Fox, California, USA
Distance from station: N 17mi, 27km
Updated: Wed, 12-May-2021 7:56pm PDT
Clear
Clear
 Wind from W
Wind: W 18 mph , 30 km/h
Temperature: 77°F , 25°C
Dew Point: 48°F , 9°C
Humidity: 36%
Barometer: 30.00 inHg , 1015.9 hPa
Clouds: Clear
Visibility: 10 miles , 16 km
2021/05/13 02:56 KWJF 130256Z 26016KT 10SM CLR 25/09 A3000 RMK AO2 SLP143 T02500089 53014
 
KMWS - Mount Wilson, California, USA
Distance from station: SSE 18mi, 30km
Updated: Wed, 13-May-2015 6:45am PDT
NOT Current

 Wind from S
Wind: S 3 mph , 6 km/h, Gust: 5 mph , 7 km/h
Temperature: 43°F , 6°C
Dew Point: -0°F , -18°C
Humidity: 16%
2015/05/13 13:45 KMWS 131345Z 18003G04KT 06/M18 RMK SNOW DEPTH 1.00
KWHP - La / Whiteman, California, USA
Distance from station: SW 21mi, 34km
Updated: Wed, 12-May-2021 7:55pm PDT
Clear
Clear
 Wind from calm
Wind: Calm
Temperature: 63°F , 17°C
Dew Point: 54°F , 12°C
Humidity: 73%
Barometer: 30.06 inHg , 1017.9 hPa
Clouds: Clear
Visibility: 10 miles , 16 km
2021/05/13 02:55 KWHP 130255Z 00000KT 10SM SKC 17/12 A3006
 
KBUR - Burbank, California, USA
Distance from station: SSW 22mi, 35km
Updated: Wed, 12-May-2021 7:53pm PDT
Clear
Clear
 Wind from S
Wind: S 9 mph , 15 km/h
Temperature: 61°F , 16°C
Dew Point: 54°F , 12°C
Humidity: 77%
Barometer: 30.02 inHg , 1016.6 hPa
Clouds: Clear
Visibility: 10 miles , 16 km
2021/05/13 02:53 KBUR 130253Z 17008KT 10SM CLR 16/12 A3002 RMK AO2 SLP156 T01560117 53016 $
KVNY - Van Nuys, California, USA
Distance from station: SW 25mi, 40km
Updated: Wed, 12-May-2021 7:51pm PDT
Clear
Clear
 Wind from ESE
Wind: ESE 9 mph , 15 km/h
Temperature: 63°F , 17°C
Dew Point: 54°F , 12°C
Humidity: 73%
Barometer: 30.01 inHg , 1016.3 hPa
Clouds: Clear
Visibility: 10 miles , 16 km
2021/05/13 02:51 KVNY 130251Z 11008KT 10SM CLR 17/12 A3001 RMK AO2 SLP157 T01720122 53016
 
KEDW - Edwards Afb, California, USA
Distance from station: NNE 33mi, 53km
Updated: Wed, 12-May-2021 7:58pm PDT
Few Clouds
Few Clouds
 Wind from WSW
Wind: WSW 21 mph , 33 km/h
Temperature: 81°F , 27°C
Dew Point: 39°F , 4°C
Humidity: 23%
Barometer: 29.96 inHg , 1014.6 hPa
Clouds: Few Clouds
Visibility: 50 miles , 80 km
Cloud details: Few Clouds 5000 ft
2021/05/13 02:58 KEDW 130258Z 24018KT 50SM FEW050 27/04 A2996 RMK AO2A PK WND 23028/11 FU FEW050 SLP127 FU LYR E-SE T02710042 53015
KSMO - Santa Monica, California, USA
Distance from station: SSW 35mi, 57km
Updated: Wed, 12-May-2021 7:51pm PDT
Overcast
Overcast
 Wind from varies
Wind: varies 6 mph , 9 km/h
Temperature: 61°F , 16°C
Dew Point: 54°F , 12°C
Humidity: 77%
Barometer: 30.03 inHg , 1016.9 hPa
Clouds: Overcast
Visibility: 10 miles , 16 km
Cloud details: Overcast 1200 ft
2021/05/13 02:51 KSMO 130251Z VRB05KT 10SM OVC012 16/12 A3003 RMK AO2 SLP169 T01610122 51008
 
KLAX - Los Angeles, California, USA
Distance from station: SSW 39mi, 63km
Updated: Wed, 12-May-2021 7:53pm PDT
Overcast
Overcast
 Wind from WSW
Wind: WSW 9 mph , 15 km/h
Temperature: 59°F , 15°C
Dew Point: 54°F , 12°C
Humidity: 82%
Barometer: 30.04 inHg , 1017.3 hPa
Clouds: Overcast
Visibility: 10 miles , 16 km
Cloud details: Overcast 1200 ft
2021/05/13 02:53 KLAX 130253Z 24008KT 10SM OVC012 15/12 A3004 RMK AO2 SLP172 T01500122 53008
KMHV - Mojave, California, USA
Distance from station: N 41mi, 66km
Updated: Wed, 12-May-2021 8:20pm PDT
Clear
Clear
 Wind from W
Wind: W 15 mph , 24 km/h
Temperature: 81°F , 27°C
Dew Point: 27°F , -3°C
Humidity: 14%
Barometer: 30.01 inHg , 1016.3 hPa
Clouds: Clear
Visibility: 10 miles , 16 km
2021/05/13 03:20 KMHV 130320Z AUTO 26013KT 10SM CLR 27/M03 A3001 RMK A01
 
KFUL - Fullerton, California, USA
Distance from station: SSE 44mi, 70km
Updated: Wed, 12-May-2021 7:53pm PDT
Clear
Clear
 Wind from W
Wind: W 5 mph , 7 km/h
Temperature: 64°F , 18°C
Dew Point: 57°F , 14°C
Humidity: 78%
Barometer: 30.02 inHg , 1016.6 hPa
Clouds: Clear
Visibility: 10 miles , 16 km
2021/05/13 02:53 KFUL 130253Z 28004KT 10SM CLR 18/14 A3002 RMK AO2 SLP165 T01830139 52015
KONT - Ontario, California, USA
Distance from station: SE 45mi, 72km
Updated: Wed, 12-May-2021 7:53pm PDT
Clear
Clear
 Wind from W
Wind: W 12 mph , 19 km/h
Temperature: 66°F , 19°C
Dew Point: 54°F , 12°C
Humidity: 64%
Barometer: 30.02 inHg , 1016.6 hPa
Clouds: Clear
Visibility: 10 miles , 16 km
2021/05/13 02:53 KONT 130253Z 26010KT 10SM CLR 19/12 A3002 RMK AO2 SLP158 T01940122 53021
 
KLGB - Long Beach, California, USA
Distance from station: S 46mi, 74km
Updated: Wed, 12-May-2021 7:53pm PDT
Few Clouds
Few Clouds
 Wind from WNW
Wind: WNW 10 mph , 17 km/h
Temperature: 63°F , 17°C
Dew Point: 54°F , 12°C
Humidity: 73%
Barometer: 30.04 inHg , 1017.3 hPa
Clouds: Few Clouds
Visibility: 10 miles , 16 km
Cloud details: Few Clouds 1500 ft
2021/05/13 02:53 KLGB 130253Z 30009KT 10SM FEW015 17/12 A3004 RMK AO2 SLP170 T01670117 53013
KVCV - Victorville, California, USA
Distance from station: E 46mi, 74km
Updated: Wed, 12-May-2021 7:49pm PDT
Clear
Clear
 Wind from SSW
Wind: SSW 9 mph , 15 km/h
Barometer: 30.01 inHg , 1016.3 hPa
Clouds: Clear
Visibility: 10 miles , 16 km
2021/05/13 02:49 KVCV 130249Z 20008KT 10SM SKC A3001
 
KTSP - Tehachapi, California, USA
Distance from station: NNW 48mi, 77km
Updated: Wed, 12-May-2021 8:35pm PDT
Clear
Clear
 Wind from W
Wind: W 10 mph , 17 km/h
Temperature: 70°F , 21°C
Dew Point: 25°F , -4°C
Humidity: 18%
Barometer: 30.12 inHg , 1020 hPa
Clouds: Clear
Visibility: 10 miles , 16 km
2021/05/13 03:35 KTSP 130335Z AUTO 26009KT 10SM CLR 21/M04 A3012 RMK AO2